Time;durP1;ratioP1;P1;durP2;ratioP2;P2;SDS_P1;SDS_P2;PMS_P1;PMS_P2;Temp;Humidity;BMP_temperature;BMP_pressure;BME280_temperature;BME280_humidity;BME280_pressure;Samples;Min_cycle;Max_cycle;Signal;HPM_P1;HPM_P2
2021/01/02 00:00:20;;;;;;;7.07;2.72;;;;;;;;;;5021313;28;20065;-63
2021/01/02 00:02:46;;;;;;;7.68;2.78;;;;;;;;;;5022401;28;20041;-60
2021/01/02 00:05:15;;;;;;;11.57;3.70;;;;;;;;;;5024147;28;20095;-65
2021/01/02 00:07:43;;;;;;;10.80;3.55;;;;;;;;;;5020259;28;20049;-63
2021/01/02 00:10:11;;;;;;;8.18;3.65;;;;;;;;;;5020381;28;20064;-68
2021/01/02 00:12:37;;;;;;;9.15;4.20;;;;;;;;;;5019661;28;20045;-61
2021/01/02 00:15:07;;;;;;;9.68;4.45;;;;;;;;;;5029009;28;20060;-61
2021/01/02 00:17:51;;;;;;;11.10;3.97;;;;;;;;;;5032084;28;20044;-61
2021/01/02 00:20:23;;;;;;;9.93;3.83;;;;;;;;;;5025243;28;20029;-62
2021/01/02 00:22:54;;;;;;;8.30;4.10;;;;;;;;;;5032375;28;20033;-61
2021/01/02 00:25:24;;;;;;;11.13;4.60;;;;;;;;;;5019770;28;20068;-62
2021/01/02 00:28:08;;;;;;;10.27;5.25;;;;;;;;;;5026898;28;20062;-63
2021/01/02 00:30:52;;;;;;;7.85;3.70;;;;;;;;;;5026043;28;20152;-63
2021/01/02 00:33:19;;;;;;;9.95;3.60;;;;;;;;;;5031529;28;20049;-63
2021/01/02 00:35:49;;;;;;;8.32;3.28;;;;;;;;;;5029905;28;20097;-62
2021/01/02 00:38:17;;;;;;;7.55;2.85;;;;;;;;;;5028266;28;20042;-62
2021/01/02 00:40:43;;;;;;;8.80;2.78;;;;;;;;;;5022682;28;20048;-62
2021/01/02 00:43:09;;;;;;;7.47;2.80;;;;;;;;;;5026218;28;20137;-62
2021/01/02 00:45:36;;;;;;;8.90;2.70;;;;;;;;;;5028409;28;20046;-62
2021/01/02 00:48:03;;;;;;;7.68;3.70;;;;;;;;;;5027331;28;20042;-63
2021/01/02 00:50:29;;;;;;;8.65;4.20;;;;;;;;;;5024343;28;20069;-63
2021/01/02 00:52:58;;;;;;;7.47;2.97;;;;;;;;;;5025873;28;20045;-63
2021/01/02 00:55:45;;;;;;;11.10;2.88;;;;;;;;;;5024172;28;20038;-63
2021/01/02 00:58:20;;;;;;;7.35;3.85;;;;;;;;;;5026930;28;20048;-59
2021/01/02 01:01:16;;;;;;;10.55;3.45;;;;;;;;;;5026628;28;20401;-61
2021/01/02 01:04:04;;;;;;;8.68;3.60;;;;;;;;;;4991349;28;20042;-64
2021/01/02 01:06:30;;;;;;;11.45;3.42;;;;;;;;;;5029364;28;20045;-62
2021/01/02 01:09:02;;;;;;;7.88;3.40;;;;;;;;;;5034055;28;20089;-63
2021/01/02 01:11:33;;;;;;;9.68;4.03;;;;;;;;;;5027295;28;20073;-63
2021/01/02 01:13:59;;;;;;;13.40;3.78;;;;;;;;;;5035664;28;20028;-62
2021/01/02 01:16:25;;;;;;;11.32;4.32;;;;;;;;;;5030615;28;20133;-63
2021/01/02 01:18:58;;;;;;;8.32;3.75;;;;;;;;;;5029247;28;20037;-62
2021/01/02 01:21:27;;;;;;;9.07;4.45;;;;;;;;;;5026508;28;20033;-63
2021/01/02 01:23:56;;;;;;;11.82;3.90;;;;;;;;;;5028764;28;20053;-62
2021/01/02 01:26:24;;;;;;;15.75;4.90;;;;;;;;;;5027744;28;20057;-63
2021/01/02 01:28:52;;;;;;;10.80;3.90;;;;;;;;;;5042009;28;20041;-63
2021/01/02 01:31:18;;;;;;;12.57;4.70;;;;;;;;;;5026623;28;20128;-62
2021/01/02 01:33:48;;;;;;;11.35;3.65;;;;;;;;;;5033889;28;20081;-61
2021/01/02 01:36:20;;;;;;;12.27;3.88;;;;;;;;;;5031085;28;20056;-63
2021/01/02 01:38:47;;;;;;;10.52;4.28;;;;;;;;;;5021131;28;20045;-63
2021/01/02 01:41:15;;;;;;;14.13;4.00;;;;;;;;;;5022310;28;20037;-58
2021/01/02 01:43:50;;;;;;;7.97;4.07;;;;;;;;;;5028422;28;20177;-55
2021/01/02 01:46:17;;;;;;;10.98;4.30;;;;;;;;;;5022324;28;20134;-57
2021/01/02 01:49:06;;;;;;;13.13;5.45;;;;;;;;;;5018634;28;20038;-57
2021/01/02 01:51:51;;;;;;;17.33;6.13;;;;;;;;;;5013683;28;20140;-54
2021/01/02 01:54:29;;;;;;;10.40;4.68;;;;;;;;;;5018999;28;20483;-55
2021/01/02 01:57:01;;;;;;;9.10;3.70;;;;;;;;;;5020968;28;20033;-59
2021/01/02 01:59:39;;;;;;;9.85;3.95;;;;;;;;;;5020111;28;20044;-58
2021/01/02 02:02:13;;;;;;;9.10;4.15;;;;;;;;;;5021052;28;20041;-58
2021/01/02 02:05:00;;;;;;;12.45;5.65;;;;;;;;;;5020295;28;20041;-56
2021/01/02 02:08:02;;;;;;;9.32;4.20;;;;;;;;;;5021122;28;20069;-59
2021/01/02 02:10:27;;;;;;;8.73;3.50;;;;;;;;;;4988298;28;20563;-57
2021/01/02 02:12:54;;;;;;;8.52;3.67;;;;;;;;;;5015544;28;20069;-54
2021/01/02 02:15:22;;;;;;;8.30;4.10;;;;;;;;;;5021342;28;20038;-56
2021/01/02 02:17:48;;;;;;;10.95;5.25;;;;;;;;;;5020665;28;20041;-56
2021/01/02 02:20:19;;;;;;;9.70;4.97;;;;;;;;;;5023369;28;20038;-58
2021/01/02 02:22:44;;;;;;;8.45;4.15;;;;;;;;;;5020298;28;20040;-57
2021/01/02 02:25:15;;;;;;;9.10;4.18;;;;;;;;;;5024516;28;20690;-56
2021/01/02 02:27:41;;;;;;;11.05;4.78;;;;;;;;;;5025371;28;20069;-59
2021/01/02 02:30:14;;;;;;;9.70;4.80;;;;;;;;;;5024417;28;20037;-60
2021/01/02 02:32:48;;;;;;;10.70;4.75;;;;;;;;;;5024716;28;20102;-60
2021/01/02 02:35:17;;;;;;;7.22;3.60;;;;;;;;;;5021925;28;20070;-59
2021/01/02 02:37:44;;;;;;;7.53;3.72;;;;;;;;;;5023730;28;20040;-60
2021/01/02 02:40:11;;;;;;;9.45;3.92;;;;;;;;;;5025323;28;20518;-59
2021/01/02 02:42:37;;;;;;;9.52;4.70;;;;;;;;;;5023817;28;20048;-60
2021/01/02 02:45:08;;;;;;;11.60;3.92;;;;;;;;;;5026408;28;20105;-60
2021/01/02 02:47:35;;;;;;;9.05;4.03;;;;;;;;;;5024558;28;20116;-58
2021/01/02 02:50:02;;;;;;;8.70;4.30;;;;;;;;;;5027750;28;20036;-60
2021/01/02 02:52:36;;;;;;;11.65;4.80;;;;;;;;;;5026892;28;20927;-59
2021/01/02 02:55:02;;;;;;;13.88;4.53;;;;;;;;;;5028998;28;20033;-59
2021/01/02 02:57:30;;;;;;;12.00;4.63;;;;;;;;;;5027134;28;20627;-59
2021/01/02 02:59:56;;;;;;;9.45;4.22;;;;;;;;;;5029027;28;20647;-59
2021/01/02 03:02:22;;;;;;;15.57;5.47;;;;;;;;;;5028568;28;20049;-58
2021/01/02 03:04:47;;;;;;;9.50;4.47;;;;;;;;;;5027276;28;20040;-59
2021/01/02 03:07:14;;;;;;;13.52;6.43;;;;;;;;;;5029563;28;20049;-57
2021/01/02 03:09:40;;;;;;;12.07;5.22;;;;;;;;;;5024514;28;20041;-59
2021/01/02 03:12:06;;;;;;;13.27;4.75;;;;;;;;;;5031003;28;20060;-59
2021/01/02 03:14:32;;;;;;;11.38;5.40;;;;;;;;;;5033594;28;20441;-58
2021/01/02 03:16:58;;;;;;;11.65;4.13;;;;;;;;;;5024481;28;20061;-58
2021/01/02 03:19:33;;;;;;;11.63;3.88;;;;;;;;;;5021227;28;20029;-58
2021/01/02 03:21:59;;;;;;;9.93;3.97;;;;;;;;;;5019309;28;20057;-59
2021/01/02 03:24:26;;;;;;;10.45;3.65;;;;;;;;;;5019727;28;20410;-58
2021/01/02 03:26:52;;;;;;;10.80;4.38;;;;;;;;;;5021134;28;20041;-59
2021/01/02 03:29:19;;;;;;;10.23;4.15;;;;;;;;;;5025602;28;20108;-59
2021/01/02 03:31:45;;;;;;;10.07;3.53;;;;;;;;;;5019743;28;20064;-58
2021/01/02 03:34:11;;;;;;;7.35;3.03;;;;;;;;;;5018649;28;20456;-59
2021/01/02 03:36:37;;;;;;;8.85;2.85;;;;;;;;;;5026227;28;20047;-57
2021/01/02 03:39:03;;;;;;;8.20;2.28;;;;;;;;;;5018908;28;20134;-58
2021/01/02 03:41:29;;;;;;;5.88;2.55;;;;;;;;;;5018521;28;20194;-57
2021/01/02 03:43:55;;;;;;;6.13;2.50;;;;;;;;;;5024590;28;20034;-59
2021/01/02 03:46:26;;;;;;;6.30;2.25;;;;;;;;;;5026021;28;20061;-59
2021/01/02 03:48:51;;;;;;;9.27;2.65;;;;;;;;;;5018801;28;20046;-59
2021/01/02 03:51:26;;;;;;;7.00;2.35;;;;;;;;;;5019722;28;20049;-59
2021/01/02 03:53:52;;;;;;;6.68;2.72;;;;;;;;;;5020000;28;20049;-58
2021/01/02 03:56:18;;;;;;;7.10;2.30;;;;;;;;;;5017438;28;20026;-59
2021/01/02 03:58:44;;;;;;;6.72;1.98;;;;;;;;;;5018294;28;20047;-57
2021/01/02 04:01:11;;;;;;;4.90;2.13;;;;;;;;;;5023480;28;20049;-60
2021/01/02 04:03:57;;;;;;;5.32;2.03;;;;;;;;;;5019545;28;20042;-58
2021/01/02 04:06:25;;;;;;;5.45;1.92;;;;;;;;;;5016712;28;20117;-58
2021/01/02 04:08:51;;;;;;;7.53;2.10;;;;;;;;;;5020273;28;20053;-57
2021/01/02 04:11:17;;;;;;;6.85;2.38;;;;;;;;;;5028680;28;20149;-58
2021/01/02 04:13:43;;;;;;;5.43;1.77;;;;;;;;;;5039226;28;20037;-58
2021/01/02 04:16:09;;;;;;;5.80;2.20;;;;;;;;;;5039773;28;20041;-58
2021/01/02 04:18:35;;;;;;;8.15;2.35;;;;;;;;;;5039070;28;20354;-57
2021/01/02 04:21:01;;;;;;;5.80;2.13;;;;;;;;;;5041279;28;20056;-57
2021/01/02 04:23:27;;;;;;;5.18;1.67;;;;;;;;;;5039635;28;20947;-59
2021/01/02 04:25:53;;;;;;;5.70;2.10;;;;;;;;;;5037720;28;20044;-58
2021/01/02 04:28:19;;;;;;;6.28;2.00;;;;;;;;;;5038070;28;20045;-57
2021/01/02 04:30:45;;;;;;;5.72;2.50;;;;;;;;;;5040032;28;20430;-58
2021/01/02 04:33:11;;;;;;;6.88;2.53;;;;;;;;;;5038053;28;20125;-58
2021/01/02 04:35:37;;;;;;;6.07;2.47;;;;;;;;;;5041351;28;20049;-58
2021/01/02 04:38:03;;;;;;;6.18;2.58;;;;;;;;;;5043256;28;20076;-56
2021/01/02 04:40:29;;;;;;;7.80;2.80;;;;;;;;;;5043934;28;20051;-58
2021/01/02 04:42:55;;;;;;;8.05;2.75;;;;;;;;;;5043550;28;20057;-55
2021/01/02 04:45:21;;;;;;;6.88;2.55;;;;;;;;;;5041510;28;20047;-57
2021/01/02 04:47:48;;;;;;;4.55;2.08;;;;;;;;;;5045628;28;20041;-57
2021/01/02 04:50:14;;;;;;;5.30;1.67;;;;;;;;;;5038597;28;20093;-57
2021/01/02 04:52:41;;;;;;;3.83;1.45;;;;;;;;;;5031216;28;20065;-58
2021/01/02 04:55:07;;;;;;;4.85;1.75;;;;;;;;;;5024029;28;20065;-58
2021/01/02 04:57:37;;;;;;;6.25;1.70;;;;;;;;;;5023893;28;20046;-56
2021/01/02 05:00:10;;;;;;;6.07;1.80;;;;;;;;;;5022688;28;20124;-58
2021/01/02 05:02:38;;;;;;;4.07;1.50;;;;;;;;;;5019586;28;20080;-55
2021/01/02 05:05:05;;;;;;;4.47;1.20;;;;;;;;;;5018033;28;20071;-58
2021/01/02 05:07:32;;;;;;;4.18;1.50;;;;;;;;;;5017888;28;20079;-58
2021/01/02 05:09:58;;;;;;;4.13;1.50;;;;;;;;;;5018021;28;20038;-57
2021/01/02 05:12:30;;;;;;;4.45;1.52;;;;;;;;;;5018427;28;20036;-58
2021/01/02 05:15:07;;;;;;;3.97;1.65;;;;;;;;;;5023425;28;20042;-58
2021/01/02 05:17:34;;;;;;;4.95;1.90;;;;;;;;;;5020198;28;20045;-58
2021/01/02 05:20:06;;;;;;;3.92;1.70;;;;;;;;;;5023401;28;20046;-56
2021/01/02 05:22:32;;;;;;;4.60;1.90;;;;;;;;;;5019760;28;20038;-58
2021/01/02 05:25:08;;;;;;;5.18;2.28;;;;;;;;;;5035979;28;20054;-58
2021/01/02 05:27:37;;;;;;;7.72;2.38;;;;;;;;;;5017922;28;20184;-58
2021/01/02 05:30:19;;;;;;;4.82;2.33;;;;;;;;;;5019430;28;20126;-58
2021/01/02 05:33:04;;;;;;;5.28;1.92;;;;;;;;;;5019531;28;20052;-57
2021/01/02 05:35:34;;;;;;;5.72;1.92;;;;;;;;;;5027832;28;20903;-60
2021/01/02 05:38:10;;;;;;;5.57;2.30;;;;;;;;;;5020254;28;20079;-59
2021/01/02 05:40:39;;;;;;;4.53;1.80;;;;;;;;;;5019427;28;20767;-59
2021/01/02 05:43:05;;;;;;;5.13;1.67;;;;;;;;;;5021438;28;20652;-59
2021/01/02 05:45:31;;;;;;;4.63;1.70;;;;;;;;;;5019182;28;20060;-58
2021/01/02 05:47:58;;;;;;;4.53;1.30;;;;;;;;;;5020604;28;20054;-58
2021/01/02 05:50:24;;;;;;;3.50;1.30;;;;;;;;;;5022812;28;20038;-58
2021/01/02 05:52:50;;;;;;;3.92;1.30;;;;;;;;;;5024051;28;20049;-60
2021/01/02 05:55:29;;;;;;;3.90;1.42;;;;;;;;;;5023214;28;20038;-59
2021/01/02 05:57:55;;;;;;;4.07;1.38;;;;;;;;;;5022357;28;20046;-57
2021/01/02 06:00:22;;;;;;;3.97;1.75;;;;;;;;;;5024050;28;20069;-59
2021/01/02 06:02:48;;;;;;;6.15;2.03;;;;;;;;;;5022191;28;20034;-58
2021/01/02 06:05:14;;;;;;;5.10;2.17;;;;;;;;;;5019290;28;20113;-59
2021/01/02 06:07:40;;;;;;;4.28;1.95;;;;;;;;;;5023824;28;20077;-59
2021/01/02 06:10:07;;;;;;;7.40;2.63;;;;;;;;;;5024077;28;20045;-56
2021/01/02 06:12:34;;;;;;;3.80;1.80;;;;;;;;;;5023133;28;20099;-58
2021/01/02 06:15:01;;;;;;;4.20;1.67;;;;;;;;;;5025325;28;20045;-56
2021/01/02 06:17:29;;;;;;;3.90;1.60;;;;;;;;;;5024906;28;20033;-58
2021/01/02 06:19:55;;;;;;;4.78;1.90;;;;;;;;;;5023273;28;20038;-58
2021/01/02 06:22:21;;;;;;;4.65;1.55;;;;;;;;;;5024951;28;20034;-57
2021/01/02 06:24:51;;;;;;;6.10;1.90;;;;;;;;;;5024054;28;20122;-58
2021/01/02 06:27:17;;;;;;;4.57;1.75;;;;;;;;;;5025430;28;20142;-57
2021/01/02 06:29:52;;;;;;;4.13;1.70;;;;;;;;;;5025752;28;20088;-58
2021/01/02 06:32:19;;;;;;;5.85;1.90;;;;;;;;;;5029337;28;20033;-58
2021/01/02 06:35:05;;;;;;;4.03;1.65;;;;;;;;;;5027096;28;20041;-59
2021/01/02 06:37:50;;;;;;;5.40;1.40;;;;;;;;;;5027577;28;20041;-59
2021/01/02 06:40:20;;;;;;;4.57;1.60;;;;;;;;;;5024514;28;20091;-59
2021/01/02 06:42:55;;;;;;;3.70;1.52;;;;;;;;;;5023196;28;20056;-58
2021/01/02 06:45:36;;;;;;;3.88;1.40;;;;;;;;;;5023933;28;20140;-59
2021/01/02 06:48:08;;;;;;;4.78;1.48;;;;;;;;;;5026704;28;20060;-58
2021/01/02 06:50:34;;;;;;;5.05;1.45;;;;;;;;;;5023117;28;20054;-58
2021/01/02 06:53:17;;;;;;;4.60;1.48;;;;;;;;;;5026019;28;20731;-59
2021/01/02 06:55:42;;;;;;;3.40;1.10;;;;;;;;;;5020327;28;20042;-58
2021/01/02 06:58:18;;;;;;;3.42;1.30;;;;;;;;;;5020430;28;20034;-59
2021/01/02 07:00:44;;;;;;;3.38;1.20;;;;;;;;;;5019236;28;20080;-59
2021/01/02 07:03:29;;;;;;;2.85;1.00;;;;;;;;;;5035762;28;20038;-58
2021/01/02 07:05:56;;;;;;;2.95;1.05;;;;;;;;;;5021781;28;20041;-57
2021/01/02 07:08:41;;;;;;;2.95;1.20;;;;;;;;;;5018041;28;20121;-58
2021/01/02 07:11:25;;;;;;;4.35;1.10;;;;;;;;;;5018501;28;20034;-58
2021/01/02 07:14:09;;;;;;;3.05;0.82;;;;;;;;;;5019225;28;20037;-58
2021/01/02 07:16:42;;;;;;;2.90;0.95;;;;;;;;;;5017482;28;20049;-59
2021/01/02 07:19:26;;;;;;;2.88;0.80;;;;;;;;;;5016427;28;20042;-59
2021/01/02 07:21:58;;;;;;;2.80;0.85;;;;;;;;;;5017273;28;20049;-58
2021/01/02 07:24:30;;;;;;;4.63;1.15;;;;;;;;;;5019129;28;20057;-58
2021/01/02 07:27:16;;;;;;;2.50;0.90;;;;;;;;;;5018358;28;20155;-57
2021/01/02 07:29:54;;;;;;;3.70;1.17;;;;;;;;;;5021286;28;20037;-59
2021/01/02 07:32:21;;;;;;;3.38;1.17;;;;;;;;;;5018953;28;20037;-59
2021/01/02 07:34:48;;;;;;;2.83;1.00;;;;;;;;;;5021750;28;20071;-58
2021/01/02 07:37:16;;;;;;;4.45;1.25;;;;;;;;;;5019312;28;20042;-59
2021/01/02 07:39:52;;;;;;;4.47;1.40;;;;;;;;;;5027922;28;20041;-59
2021/01/02 07:42:20;;;;;;;4.30;1.63;;;;;;;;;;5019609;28;20069;-59
2021/01/02 07:44:52;;;;;;;4.22;1.15;;;;;;;;;;5022705;28;20034;-59
2021/01/02 07:47:18;;;;;;;4.50;1.45;;;;;;;;;;5021520;28;20540;-58
2021/01/02 07:49:44;;;;;;;3.70;1.15;;;;;;;;;;5024072;28;20044;-59
2021/01/02 07:52:10;;;;;;;3.42;1.00;;;;;;;;;;5026419;28;20075;-58
2021/01/02 07:54:36;;;;;;;4.05;1.20;;;;;;;;;;5024183;28;20128;-57
2021/01/02 07:57:06;;;;;;;3.10;0.90;;;;;;;;;;5023266;28;20060;-59
2021/01/02 07:59:34;;;;;;;3.17;1.13;;;;;;;;;;5022925;28;20056;-58
2021/01/02 08:02:03;;;;;;;2.95;0.88;;;;;;;;;;5024881;28;20037;-58
2021/01/02 08:04:30;;;;;;;3.40;1.00;;;;;;;;;;5023245;28;20078;-58
2021/01/02 08:07:00;;;;;;;2.53;0.90;;;;;;;;;;5023554;28;20064;-59
2021/01/02 08:09:30;;;;;;;2.97;1.30;;;;;;;;;;5021511;28;20049;-59
2021/01/02 08:11:59;;;;;;;3.47;1.10;;;;;;;;;;5026004;28;20033;-59
2021/01/02 08:14:27;;;;;;;3.72;1.20;;;;;;;;;;5022576;28;20037;-58
2021/01/02 08:16:57;;;;;;;3.60;1.10;;;;;;;;;;5024434;28;20186;-59
2021/01/02 08:19:22;;;;;;;3.83;1.10;;;;;;;;;;5023671;28;20120;-58
2021/01/02 08:21:49;;;;;;;2.95;1.05;;;;;;;;;;5025811;28;20038;-59
2021/01/02 08:24:17;;;;;;;2.90;1.10;;;;;;;;;;5025517;28;20131;-58
2021/01/02 08:26:43;;;;;;;3.25;1.20;;;;;;;;;;5026294;28;20930;-59
2021/01/02 08:29:09;;;;;;;2.58;0.80;;;;;;;;;;5027563;28;20053;-58
2021/01/02 08:31:36;;;;;;;3.40;0.90;;;;;;;;;;5026228;28;20058;-58
2021/01/02 08:34:02;;;;;;;3.28;1.08;;;;;;;;;;5023364;28;20068;-58
2021/01/02 08:36:28;;;;;;;3.10;1.20;;;;;;;;;;5019933;28;20042;-58
2021/01/02 08:38:58;;;;;;;2.47;0.80;;;;;;;;;;5025769;28;20734;-58
2021/01/02 08:41:25;;;;;;;2.65;0.85;;;;;;;;;;5022430;28;20239;-59
2021/01/02 08:43:52;;;;;;;3.67;1.15;;;;;;;;;;5022044;28;20037;-58
2021/01/02 08:46:25;;;;;;;3.67;1.08;;;;;;;;;;5023601;28;20073;-57
2021/01/02 08:48:51;;;;;;;2.70;0.77;;;;;;;;;;5023120;28;20034;-58
2021/01/02 08:51:21;;;;;;;3.10;0.82;;;;;;;;;;5024448;28;20049;-59
2021/01/02 08:53:46;;;;;;;3.20;0.70;;;;;;;;;;5039854;28;20494;-58
2021/01/02 08:56:30;;;;;;;3.03;1.10;;;;;;;;;;5023245;28;20294;-58
2021/01/02 08:58:59;;;;;;;;;;;;;;;;;;5022063;28;20525;-59
2021/01/02 09:01:30;;;;;;;3.80;0.95;;;;;;;;;;5021205;28;19980;-59
2021/01/02 09:03:55;;;;;;;4.30;1.17;;;;;;;;;;5023787;28;20708;-58
2021/01/02 09:06:25;;;;;;;4.35;0.90;;;;;;;;;;5021070;28;20059;-57
2021/01/02 09:09:01;;;;;;;3.85;0.90;;;;;;;;;;5022773;28;20033;-59
2021/01/02 09:11:27;;;;;;;3.28;1.10;;;;;;;;;;5021038;28;20045;-56
2021/01/02 09:14:06;;;;;;;4.38;1.70;;;;;;;;;;5021775;28;20125;-59
2021/01/02 09:16:32;;;;;;;6.40;2.20;;;;;;;;;;5022466;28;20049;-58
2021/01/02 09:18:58;;;;;;;6.47;2.92;;;;;;;;;;5023035;28;20482;-58
2021/01/02 09:21:24;;;;;;;6.30;2.30;;;;;;;;;;5021591;28;20044;-59
2021/01/02 09:23:51;;;;;;;4.70;2.03;;;;;;;;;;5021669;28;20142;-59
2021/01/02 09:26:17;;;;;;;5.57;2.10;;;;;;;;;;5032042;28;20573;-57
2021/01/02 09:28:44;;;;;;;5.45;1.98;;;;;;;;;;5029847;28;20100;-57
2021/01/02 09:31:10;;;;;;;6.03;2.20;;;;;;;;;;5025651;28;20030;-58
2021/01/02 09:33:36;;;;;;;5.75;1.90;;;;;;;;;;5023300;28;20050;-57
2021/01/02 09:36:01;;;;;;;5.53;2.00;;;;;;;;;;5021939;28;20129;-58
2021/01/02 09:38:27;;;;;;;4.65;1.98;;;;;;;;;;5024419;28;20053;-58
2021/01/02 09:40:53;;;;;;;5.07;2.10;;;;;;;;;;5026835;28;20049;-59
2021/01/02 09:43:19;;;;;;;4.28;2.13;;;;;;;;;;5025837;28;20037;-58
2021/01/02 09:45:45;;;;;;;6.63;1.70;;;;;;;;;;5026464;28;20042;-58
2021/01/02 09:48:12;;;;;;;7.18;2.38;;;;;;;;;;5025118;28;20084;-56
2021/01/02 09:50:40;;;;;;;4.57;2.13;;;;;;;;;;5026363;28;21706;-58
2021/01/02 09:53:06;;;;;;;4.80;2.00;;;;;;;;;;5027930;28;20042;-58
2021/01/02 09:55:32;;;;;;;5.22;1.90;;;;;;;;;;5027457;28;20052;-59
2021/01/02 09:57:58;;;;;;;5.60;2.03;;;;;;;;;;5026503;28;20037;-58
2021/01/02 10:00:24;;;;;;;5.25;2.10;;;;;;;;;;5026185;28;20040;-58
2021/01/02 10:02:50;;;;;;;4.70;2.00;;;;;;;;;;5028082;28;20046;-58
2021/01/02 10:05:17;;;;;;;4.95;1.90;;;;;;;;;;5028790;28;20041;-58
2021/01/02 10:07:43;;;;;;;5.72;2.30;;;;;;;;;;5043497;28;20080;-58
2021/01/02 10:10:09;;;;;;;4.47;1.75;;;;;;;;;;5045914;28;20123;-58
2021/01/02 10:12:35;;;;;;;5.93;1.80;;;;;;;;;;5044056;28;20103;-57
2021/01/02 10:15:01;;;;;;;5.57;1.83;;;;;;;;;;5045821;28;20072;-58
2021/01/02 10:17:28;;;;;;;4.13;1.70;;;;;;;;;;5043999;28;20056;-59
2021/01/02 10:19:55;;;;;;;5.15;2.00;;;;;;;;;;5043142;28;20052;-58
2021/01/02 10:22:21;;;;;;;4.13;1.90;;;;;;;;;;5034389;28;20092;-59
2021/01/02 10:24:48;;;;;;;4.65;2.10;;;;;;;;;;5023669;28;20049;-58
2021/01/02 10:27:13;;;;;;;4.95;2.08;;;;;;;;;;5023140;28;20060;-58
2021/01/02 10:29:46;;;;;;;3.92;1.70;;;;;;;;;;5021640;28;20046;-57
2021/01/02 10:32:12;;;;;;;4.78;2.00;;;;;;;;;;5022577;28;20037;-58
2021/01/02 10:34:39;;;;;;;4.40;1.67;;;;;;;;;;5019669;28;22620;-58
2021/01/02 10:37:05;;;;;;;4.15;1.80;;;;;;;;;;5021151;28;20033;-58
2021/01/02 10:39:31;;;;;;;6.35;1.98;;;;;;;;;;5020654;28;20569;-58
2021/01/02 10:41:57;;;;;;;4.45;1.60;;;;;;;;;;5020290;28;20038;-57
2021/01/02 10:44:22;;;;;;;4.65;1.73;;;;;;;;;;5022066;28;20329;-59
2021/01/02 10:46:51;;;;;;;4.80;1.50;;;;;;;;;;5020730;28;20065;-58
2021/01/02 10:49:18;;;;;;;3.78;1.50;;;;;;;;;;5021538;28;20076;-58
2021/01/02 10:51:45;;;;;;;3.53;1.30;;;;;;;;;;5019156;28;20057;-58
2021/01/02 10:54:11;;;;;;;3.40;1.27;;;;;;;;;;5020190;28;20084;-59
2021/01/02 10:56:37;;;;;;;3.63;1.30;;;;;;;;;;5020289;28;20045;-58
2021/01/02 10:59:06;;;;;;;3.92;1.45;;;;;;;;;;5020979;28;20041;-58
2021/01/02 11:01:41;;;;;;;3.58;1.00;;;;;;;;;;5021231;28;20042;-59
2021/01/02 11:04:08;;;;;;;3.60;1.10;;;;;;;;;;5019598;28;20859;-59
2021/01/02 11:06:34;;;;;;;2.97;1.10;;;;;;;;;;5020049;28;20061;-58
2021/01/02 11:09:00;;;;;;;2.65;0.82;;;;;;;;;;5022723;28;20034;-58
2021/01/02 11:11:26;;;;;;;3.95;1.05;;;;;;;;;;5021547;28;20037;-59
2021/01/02 11:13:51;;;;;;;3.33;1.08;;;;;;;;;;5021269;28;20096;-58
2021/01/02 11:16:17;;;;;;;3.65;1.10;;;;;;;;;;5020831;28;20049;-58
2021/01/02 11:18:43;;;;;;;3.20;1.00;;;;;;;;;;5022695;28;20468;-59
2021/01/02 11:21:09;;;;;;;3.22;1.00;;;;;;;;;;5023024;28;20517;-59
2021/01/02 11:23:35;;;;;;;4.05;1.10;;;;;;;;;;5021873;28;20076;-58
2021/01/02 11:26:01;;;;;;;2.40;0.80;;;;;;;;;;5025154;28;20250;-59
2021/01/02 11:28:27;;;;;;;4.05;1.23;;;;;;;;;;5024284;28;20056;-58
2021/01/02 11:30:53;;;;;;;3.13;0.90;;;;;;;;;;5024326;28;20046;-59
2021/01/02 11:33:18;;;;;;;2.40;0.77;;;;;;;;;;5023500;28;20034;-58
2021/01/02 11:35:44;;;;;;;2.67;0.88;;;;;;;;;;5024500;28;20049;-58
2021/01/02 11:38:10;;;;;;;4.50;1.60;;;;;;;;;;5024269;28;20124;-57
2021/01/02 11:40:36;;;;;;;3.90;1.02;;;;;;;;;;5027755;28;20033;-58
2021/01/02 11:43:02;;;;;;;2.28;0.70;;;;;;;;;;5041658;28;20043;-55
2021/01/02 11:45:28;;;;;;;3.92;1.00;;;;;;;;;;5047019;28;20047;-59
2021/01/02 11:47:54;;;;;;;2.55;0.80;;;;;;;;;;5033819;28;20041;-58
2021/01/02 11:50:20;;;;;;;2.78;0.88;;;;;;;;;;5040128;28;20033;-59
2021/01/02 11:52:46;;;;;;;3.90;0.93;;;;;;;;;;5029363;28;20101;-59
2021/01/02 11:55:12;;;;;;;2.97;0.70;;;;;;;;;;5034472;28;20581;-58
2021/01/02 11:57:38;;;;;;;4.50;0.70;;;;;;;;;;5044956;28;20043;-58
2021/01/02 12:00:05;;;;;;;2.38;0.80;;;;;;;;;;5043263;28;20045;-58
2021/01/02 12:02:31;;;;;;;2.45;0.70;;;;;;;;;;5023374;28;20548;-59
2021/01/02 12:04:57;;;;;;;2.53;0.68;;;;;;;;;;5027781;28;20033;-59
2021/01/02 12:07:23;;;;;;;2.53;0.80;;;;;;;;;;5023790;28;20050;-58
2021/01/02 12:09:49;;;;;;;3.30;0.85;;;;;;;;;;5021925;28;20065;-58
2021/01/02 12:12:14;;;;;;;2.80;1.00;;;;;;;;;;5019063;28;20110;-58
2021/01/02 12:14:40;;;;;;;3.63;0.90;;;;;;;;;;5018628;28;20185;-58
2021/01/02 12:17:08;;;;;;;2.47;0.70;;;;;;;;;;5017983;28;20046;-58
2021/01/02 12:19:34;;;;;;;3.47;0.82;;;;;;;;;;5018005;28;20204;-58
2021/01/02 12:22:01;;;;;;;3.25;0.90;;;;;;;;;;5017758;28;20038;-58
2021/01/02 12:24:27;;;;;;;2.92;0.70;;;;;;;;;;5021994;28;20112;-57
2021/01/02 12:26:55;;;;;;;2.38;0.70;;;;;;;;;;5022646;28;20057;-58
2021/01/02 12:29:21;;;;;;;3.28;1.08;;;;;;;;;;5021234;28;21187;-57
2021/01/02 12:31:51;;;;;;;2.33;0.68;;;;;;;;;;5022738;28;20041;-57
2021/01/02 12:34:17;;;;;;;2.65;0.77;;;;;;;;;;5029515;28;20033;-58
2021/01/02 12:36:43;;;;;;;2.40;0.68;;;;;;;;;;5023655;28;20129;-57
2021/01/02 12:39:11;;;;;;;2.30;0.68;;;;;;;;;;5023548;28;20056;-57
2021/01/02 12:41:36;;;;;;;2.58;0.80;;;;;;;;;;5022723;28;22076;-58
2021/01/02 12:44:03;;;;;;;2.90;0.70;;;;;;;;;;5023693;28;20034;-58
2021/01/02 12:46:35;;;;;;;2.33;0.70;;;;;;;;;;5023190;28;20030;-57
2021/01/02 12:49:01;;;;;;;2.38;0.80;;;;;;;;;;5024372;28;20052;-57
2021/01/02 12:51:27;;;;;;;3.40;0.90;;;;;;;;;;5023190;28;20101;-56
2021/01/02 12:53:53;;;;;;;2.00;0.70;;;;;;;;;;5027978;28;21005;-56
2021/01/02 12:56:19;;;;;;;2.70;0.82;;;;;;;;;;5025746;28;20125;-56
2021/01/02 12:58:45;;;;;;;2.88;0.70;;;;;;;;;;5026606;28;20041;-57
2021/01/02 13:01:11;;;;;;;1.98;0.60;;;;;;;;;;5027924;28;20037;-58
2021/01/02 13:03:37;;;;;;;1.75;0.60;;;;;;;;;;5026356;28;20126;-58
2021/01/02 13:06:03;;;;;;;2.80;0.70;;;;;;;;;;5027283;28;20030;-59
2021/01/02 13:08:28;;;;;;;2.20;0.70;;;;;;;;;;5027316;28;20075;-58
2021/01/02 13:10:54;;;;;;;1.60;0.50;;;;;;;;;;5027723;28;20046;-59
2021/01/02 13:13:20;;;;;;;1.40;0.50;;;;;;;;;;5025279;28;20026;-59
2021/01/02 13:15:46;;;;;;;2.03;0.70;;;;;;;;;;5027997;28;20045;-59
2021/01/02 13:18:12;;;;;;;1.77;0.60;;;;;;;;;;5028011;28;20041;-59
2021/01/02 13:20:38;;;;;;;1.98;0.60;;;;;;;;;;5029590;28;20042;-57
2021/01/02 13:23:04;;;;;;;1.50;0.50;;;;;;;;;;5029884;28;20042;-58
2021/01/02 13:25:30;;;;;;;1.83;0.50;;;;;;;;;;5032016;28;20044;-56
2021/01/02 13:27:55;;;;;;;1.23;0.50;;;;;;;;;;5045919;28;20155;-59
2021/01/02 13:30:22;;;;;;;2.08;0.60;;;;;;;;;;5032217;28;20038;-59
2021/01/02 13:32:48;;;;;;;1.13;0.50;;;;;;;;;;5031697;28;20084;-59
2021/01/02 13:35:14;;;;;;;1.65;0.50;;;;;;;;;;5031694;28;20041;-58
2021/01/02 13:37:39;;;;;;;2.10;0.43;;;;;;;;;;5029696;28;20041;-58
2021/01/02 13:40:07;;;;;;;0.45;0.30;;;;;;;;;;5030017;28;20063;-58
2021/01/02 13:42:33;;;;;;;1.25;0.40;;;;;;;;;;5028141;28;20052;-58
2021/01/02 13:44:58;;;;;;;1.65;0.38;;;;;;;;;;5022960;28;20033;-58
2021/01/02 13:47:24;;;;;;;0.65;0.32;;;;;;;;;;5021286;28;20056;-59
2021/01/02 13:49:54;;;;;;;0.70;0.30;;;;;;;;;;5022646;28;20052;-56
2021/01/02 13:52:21;;;;;;;0.88;0.40;;;;;;;;;;5028459;28;20231;-58
2021/01/02 13:54:48;;;;;;;0.68;0.30;;;;;;;;;;5037603;28;20068;-58
2021/01/02 13:57:14;;;;;;;0.77;0.40;;;;;;;;;;5023113;28;20160;-58
2021/01/02 13:59:39;;;;;;;1.33;0.40;;;;;;;;;;5020859;28;20053;-58
2021/01/02 14:02:05;;;;;;;0.30;0.30;;;;;;;;;;5022348;28;20042;-58
2021/01/02 14:04:31;;;;;;;1.25;0.40;;;;;;;;;;5021102;28;20068;-58
2021/01/02 14:06:57;;;;;;;0.80;0.40;;;;;;;;;;5019348;28;20652;-59
2021/01/02 14:09:24;;;;;;;0.47;0.30;;;;;;;;;;5020789;28;20132;-57
2021/01/02 14:11:50;;;;;;;0.30;0.30;;;;;;;;;;5020654;28;20045;-57
2021/01/02 14:14:16;;;;;;;1.10;0.40;;;;;;;;;;5019424;28;20037;-58
2021/01/02 14:16:52;;;;;;;1.80;0.50;;;;;;;;;;5022795;28;20084;-59
2021/01/02 14:19:18;;;;;;;1.10;0.40;;;;;;;;;;5021238;28;20099;-59
2021/01/02 14:21:45;;;;;;;1.23;0.50;;;;;;;;;;5019473;28;20045;-58
2021/01/02 14:24:11;;;;;;;1.77;0.50;;;;;;;;;;5021787;28;20062;-59
2021/01/02 14:26:37;;;;;;;1.42;0.40;;;;;;;;;;5021939;28;20053;-57
2021/01/02 14:29:03;;;;;;;1.48;0.43;;;;;;;;;;5021940;28;20045;-58
2021/01/02 14:31:33;;;;;;;2.13;0.50;;;;;;;;;;5023001;28;20030;-57
2021/01/02 14:34:00;;;;;;;1.98;0.60;;;;;;;;;;5022634;28;20046;-58
2021/01/02 14:36:26;;;;;;;1.95;0.60;;;;;;;;;;5021530;28;20061;-55
2021/01/02 14:38:51;;;;;;;3.17;0.50;;;;;;;;;;5024008;28;20619;-58
2021/01/02 14:41:22;;;;;;;1.27;0.40;;;;;;;;;;5024991;28;21277;-58
2021/01/02 14:43:48;;;;;;;1.23;0.50;;;;;;;;;;5033175;28;20040;-59
2021/01/02 14:46:14;;;;;;;2.03;0.40;;;;;;;;;;5025779;28;20102;-58
2021/01/02 14:48:40;;;;;;;1.13;0.40;;;;;;;;;;5023873;28;20076;-57